createdAt,value
2023-03-13T00:00:07.004Z,17.90
2023-03-13T00:01:06.996Z,22.50
2023-03-13T00:03:41.899Z,16.00
2023-03-13T00:04:41.893Z,22.60
2023-03-13T00:05:41.862Z,23.20
2023-03-13T00:06:41.852Z,22.50
2023-03-13T00:07:41.837Z,18.30
2023-03-13T00:08:41.841Z,19.60
2023-03-13T00:09:41.820Z,24.00
2023-03-13T00:10:41.808Z,18.70
2023-03-13T00:11:41.794Z,21.40
2023-03-13T00:12:41.782Z,21.50
2023-03-13T00:13:41.781Z,19.60
2023-03-13T00:14:41.763Z,18.10
2023-03-13T00:15:41.753Z,23.10
2023-03-13T00:16:41.829Z,16.80
2023-03-13T00:17:41.738Z,20.40
2023-03-13T00:18:41.732Z,20.80
2023-03-13T00:19:41.713Z,20.00
2023-03-13T00:20:41.701Z,20.90
2023-03-13T00:21:41.696Z,20.00
2023-03-13T00:22:41.677Z,22.50
2023-03-13T00:23:41.678Z,17.70
2023-03-13T00:24:41.659Z,15.90
2023-03-13T00:25:41.643Z,22.70
2023-03-13T00:26:41.637Z,14.10
2023-03-13T00:27:41.622Z,17.70
2023-03-13T00:28:41.631Z,20.80
2023-03-13T00:29:41.615Z,20.50
2023-03-13T00:30:41.616Z,18.20
2023-03-13T00:31:41.582Z,16.50
2023-03-13T00:32:41.621Z,16.40
2023-03-13T00:33:41.591Z,17.00
2023-03-13T00:34:41.565Z,18.10
2023-03-13T00:35:41.670Z,17.90
2023-03-13T00:36:41.530Z,18.10
2023-03-13T00:37:41.530Z,19.50
2023-03-13T00:38:41.532Z,15.50
2023-03-13T00:39:41.502Z,17.30
2023-03-13T00:40:41.488Z,18.50
2023-03-13T00:41:41.487Z,17.50
2023-03-13T00:42:41.465Z,24.10
2023-03-13T00:43:41.470Z,15.50
2023-03-13T00:44:41.442Z,16.50
2023-03-13T00:45:41.449Z,15.10
2023-03-13T00:46:41.422Z,17.70
2023-03-13T00:47:41.415Z,17.50
2023-03-13T00:48:41.413Z,16.30
2023-03-13T00:49:41.405Z,13.80
2023-03-13T00:50:41.380Z,15.90
2023-03-13T00:51:41.381Z,13.90
2023-03-13T00:52:41.371Z,21.80
2023-03-13T00:53:41.363Z,15.60
2023-03-13T00:54:41.336Z,20.10
2023-03-13T00:55:41.332Z,14.40
2023-03-13T00:56:41.326Z,18.40
2023-03-13T00:57:41.307Z,16.50
2023-03-13T00:58:41.318Z,16.20
2023-03-13T00:59:41.298Z,19.50
2023-03-13T01:00:41.286Z,17.20
2023-03-13T01:01:41.282Z,15.90
2023-03-13T01:02:41.389Z,16.50
2023-03-13T01:03:41.362Z,18.20
2023-03-13T01:04:41.238Z,15.70
2023-03-13T01:05:41.237Z,16.70
2023-03-13T01:06:41.213Z,14.40
2023-03-13T01:07:41.209Z,16.10
2023-03-13T01:08:41.217Z,16.30
2023-03-13T01:09:41.186Z,19.90
2023-03-13T01:10:41.177Z,19.60
2023-03-13T01:11:41.163Z,16.50
2023-03-13T01:12:41.153Z,14.90
2023-03-13T01:13:41.169Z,22.70
2023-03-13T01:14:41.133Z,16.70
2023-03-13T01:15:41.163Z,18.00
2023-03-13T01:16:41.112Z,18.20
2023-03-13T01:17:41.106Z,16.70
2023-03-13T01:18:41.106Z,16.50
2023-03-13T01:19:41.091Z,17.20
2023-03-13T01:20:41.072Z,18.20
2023-03-13T01:21:41.059Z,17.50
2023-03-13T01:22:41.049Z,17.50
2023-03-13T01:23:41.051Z,20.40
2023-03-13T01:24:41.025Z,17.50
2023-03-13T01:25:41.019Z,19.10
2023-03-13T01:26:41.009Z,18.80
2023-03-13T01:27:41.013Z,16.80
2023-03-13T01:28:40.995Z,17.60
2023-03-13T01:29:40.980Z,14.30
2023-03-13T01:30:40.986Z,19.20
2023-03-13T01:31:40.963Z,20.90
2023-03-13T01:32:40.971Z,17.10
2023-03-13T01:33:40.950Z,13.30
2023-03-13T01:34:40.925Z,12.80
2023-03-13T01:35:40.981Z,14.70
2023-03-13T01:36:40.907Z,20.90
2023-03-13T01:37:40.897Z,16.50
2023-03-13T01:38:40.897Z,17.90
2023-03-13T01:39:40.889Z,20.60
2023-03-13T01:40:40.877Z,17.30
2023-03-13T01:41:40.856Z,19.00
2023-03-13T01:42:40.840Z,14.10
2023-03-13T01:43:40.829Z,18.70
2023-03-13T01:44:40.825Z,15.90
2023-03-13T01:45:40.809Z,20.70
2023-03-13T01:46:40.824Z,16.80
2023-03-13T01:47:40.787Z,18.10
2023-03-13T01:48:40.767Z,21.30
2023-03-13T01:49:40.772Z,16.90
2023-03-13T01:50:40.780Z,17.50
2023-03-13T01:51:40.743Z,16.70
2023-03-13T01:52:40.725Z,14.50
2023-03-13T01:53:40.720Z,18.80
2023-03-13T01:54:40.732Z,17.80
2023-03-13T01:55:40.720Z,14.40
2023-03-13T01:56:40.694Z,15.40
2023-03-13T01:57:40.684Z,16.10
2023-03-13T01:58:40.663Z,19.90
2023-03-13T01:59:40.682Z,18.50
2023-03-13T02:00:40.647Z,15.70
2023-03-13T02:01:40.646Z,20.80
2023-03-13T02:02:40.641Z,26.00
2023-03-13T02:03:40.616Z,15.20
2023-03-13T02:04:40.617Z,14.50
2023-03-13T02:05:40.601Z,18.90
2023-03-13T02:06:40.584Z,18.40
2023-03-13T02:07:40.580Z,16.40
2023-03-13T02:08:40.562Z,18.80
2023-03-13T02:09:40.562Z,15.30
2023-03-13T02:10:40.544Z,12.50
2023-03-13T02:11:40.542Z,18.50
2023-03-13T02:12:40.517Z,13.70
2023-03-13T02:13:40.505Z,15.90
2023-03-13T02:14:40.503Z,19.70
2023-03-13T02:15:40.499Z,16.50
2023-03-13T02:16:40.471Z,16.70
2023-03-13T02:17:40.477Z,11.70
2023-03-13T02:18:40.463Z,17.20
2023-03-13T02:19:40.458Z,20.60
2023-03-13T02:20:40.442Z,19.70
2023-03-13T02:21:40.426Z,16.80
2023-03-13T02:22:40.411Z,19.20
2023-03-13T02:23:40.401Z,20.60
2023-03-13T02:24:40.404Z,16.50
2023-03-13T02:25:40.385Z,19.30
2023-03-13T02:26:40.426Z,15.70
2023-03-13T02:27:40.367Z,18.20
2023-03-13T02:28:40.358Z,16.00
2023-03-13T02:29:40.428Z,15.60
2023-03-13T02:30:40.363Z,18.70
2023-03-13T02:31:40.435Z,15.80
2023-03-13T02:32:40.479Z,15.30
2023-03-13T02:33:40.310Z,16.10
2023-03-13T02:34:40.309Z,15.40
2023-03-13T02:35:40.330Z,15.70
2023-03-13T02:36:40.269Z,16.10
2023-03-13T02:37:40.260Z,13.30
2023-03-13T02:38:40.246Z,17.70
2023-03-13T02:39:40.261Z,16.10
2023-03-13T02:40:40.229Z,19.50
2023-03-13T02:41:40.223Z,16.20
2023-03-13T02:42:40.209Z,13.50
2023-03-13T02:43:40.222Z,14.70
2023-03-13T02:44:40.210Z,17.50
2023-03-13T02:45:40.181Z,17.80
2023-03-13T02:46:40.270Z,15.90
2023-03-13T02:47:40.170Z,14.50
2023-03-13T02:48:40.151Z,16.60
2023-03-13T02:49:40.139Z,16.70
2023-03-13T02:50:40.140Z,17.50
2023-03-13T02:51:40.119Z,17.10
2023-03-13T02:52:40.106Z,14.20
2023-03-13T02:53:40.104Z,16.70
2023-03-13T02:54:40.087Z,14.20
2023-03-13T02:55:40.090Z,14.10
2023-03-13T02:56:40.072Z,17.30
2023-03-13T02:57:40.058Z,17.10
2023-03-13T02:58:49.242Z,12.80
2023-03-13T02:59:41.046Z,14.80
2023-03-13T03:00:40.104Z,13.90
2023-03-13T03:01:40.033Z,13.80
2023-03-13T03:02:40.023Z,15.80
2023-03-13T03:03:40.126Z,17.00
2023-03-13T03:04:40.003Z,17.30
2023-03-13T03:05:39.998Z,14.60
2023-03-13T03:06:39.977Z,17.30
2023-03-13T03:07:39.967Z,17.20
2023-03-13T03:08:39.955Z,16.10
2023-03-13T03:09:41.059Z,15.30
2023-03-13T03:10:41.067Z,13.40
2023-03-13T03:11:41.053Z,14.70
2023-03-13T03:12:41.046Z,11.30
2023-03-13T03:13:41.052Z,18.60
2023-03-13T03:14:41.016Z,17.00
2023-03-13T03:15:41.046Z,13.00
2023-03-13T03:16:41.043Z,15.90
2023-03-13T03:17:40.979Z,15.20
2023-03-13T03:18:40.995Z,15.90
2023-03-13T03:19:40.961Z,16.60
2023-03-13T03:20:40.972Z,13.60
2023-03-13T03:21:40.933Z,16.40
2023-03-13T03:22:40.997Z,11.60
2023-03-13T03:23:40.914Z,14.00
2023-03-13T03:24:40.922Z,17.90
2023-03-13T03:25:40.908Z,16.40
2023-03-13T03:26:40.889Z,12.90
2023-03-13T03:27:40.873Z,14.60
2023-03-13T03:28:40.869Z,16.40
2023-03-13T03:29:40.854Z,14.80
2023-03-13T03:30:40.851Z,13.70
2023-03-13T03:31:40.928Z,13.00
2023-03-13T03:32:40.861Z,15.70
2023-03-13T03:33:40.818Z,11.20
2023-03-13T03:34:40.800Z,19.60
2023-03-13T03:35:40.842Z,15.20
2023-03-13T03:36:40.775Z,15.00
2023-03-13T03:37:40.765Z,20.40
2023-03-13T03:38:40.760Z,11.60
2023-03-13T03:39:40.753Z,17.70
2023-03-13T03:40:40.761Z,16.80
2023-03-13T03:41:40.723Z,18.60
2023-03-13T03:42:40.724Z,11.60
2023-03-13T03:43:40.710Z,12.40
2023-03-13T03:44:40.694Z,12.90
2023-03-13T03:45:40.753Z,12.70
2023-03-13T03:46:40.785Z,14.50
2023-03-13T03:47:40.670Z,15.10
2023-03-13T03:48:40.655Z,11.20
2023-03-13T03:49:40.646Z,16.90
2023-03-13T03:50:40.695Z,11.80
2023-03-13T03:51:40.681Z,16.10
2023-03-13T03:52:40.689Z,12.60
2023-03-13T03:53:40.615Z,13.60
2023-03-13T03:54:40.596Z,11.40
2023-03-13T03:55:40.608Z,16.10
2023-03-13T03:56:40.588Z,11.10
2023-03-13T03:57:40.571Z,14.70
2023-03-13T03:58:40.570Z,11.90
2023-03-13T03:59:40.568Z,11.60
2023-03-13T04:00:40.570Z,12.40
2023-03-13T04:01:40.535Z,15.30
2023-03-13T04:02:40.557Z,11.20
2023-03-13T04:03:40.687Z,10.20
2023-03-13T04:04:40.514Z,11.70
2023-03-13T04:05:40.504Z,13.70
2023-03-13T04:06:40.479Z,11.20
2023-03-13T04:07:40.478Z,10.50
2023-03-13T04:08:40.455Z,8.80
2023-03-13T04:09:40.450Z,10.40
2023-03-13T04:10:40.459Z,13.40
2023-03-13T04:11:40.456Z,11.00
2023-03-13T04:12:40.422Z,16.20
2023-03-13T04:13:40.409Z,12.90
2023-03-13T04:14:40.398Z,10.00
2023-03-13T04:15:40.403Z,11.30
2023-03-13T04:16:40.451Z,10.50
2023-03-13T04:17:40.374Z,12.90
2023-03-13T04:18:40.359Z,9.90
2023-03-13T04:19:40.350Z,11.50
2023-03-13T04:20:40.338Z,11.40
2023-03-13T04:21:40.350Z,12.00
2023-03-13T04:22:40.318Z,9.40
2023-03-13T04:23:40.317Z,8.70
2023-03-13T04:24:40.301Z,9.70
2023-03-13T04:25:40.285Z,9.90
2023-03-13T04:26:40.285Z,10.30
2023-03-13T04:27:40.276Z,9.80
2023-03-13T04:28:40.261Z,8.20
2023-03-13T04:29:40.255Z,10.30
2023-03-13T04:30:40.270Z,12.70
2023-03-13T04:31:40.259Z,13.40
2023-03-13T04:32:40.293Z,7.80
2023-03-13T04:33:40.210Z,12.90
2023-03-13T04:34:40.194Z,15.20
2023-03-13T04:35:40.322Z,15.40
2023-03-13T04:36:40.205Z,13.00
2023-03-13T04:37:40.160Z,10.40
2023-03-13T04:38:40.156Z,15.90
2023-03-13T04:39:40.150Z,9.90
2023-03-13T04:40:40.137Z,12.90
2023-03-13T04:41:40.134Z,10.30
2023-03-13T04:42:40.122Z,11.20
2023-03-13T04:43:40.110Z,11.40
2023-03-13T04:44:42.413Z,10.90
2023-03-13T04:45:40.080Z,8.10
2023-03-13T04:46:40.085Z,13.30
2023-03-13T04:47:40.069Z,11.20
2023-03-13T04:48:40.056Z,10.10
2023-03-13T04:49:40.061Z,10.30
2023-03-13T04:50:40.039Z,9.40
2023-03-13T04:51:40.040Z,11.70
2023-03-13T04:52:40.022Z,9.80
2023-03-13T04:53:40.006Z,14.00
2023-03-13T04:54:39.996Z,11.00
2023-03-13T04:55:39.983Z,11.40
2023-03-13T04:56:43.673Z,9.30
2023-03-13T04:57:40.965Z,11.50
2023-03-13T04:58:39.956Z,10.30
2023-03-13T04:59:39.957Z,11.70
2023-03-13T05:00:39.936Z,8.20
2023-03-13T05:01:40.004Z,11.60
2023-03-13T05:02:39.923Z,9.30
2023-03-13T05:03:39.913Z,8.10
2023-03-13T05:04:39.929Z,10.50
2023-03-13T05:05:39.882Z,10.80
2023-03-13T05:06:39.883Z,8.40
2023-03-13T05:07:39.864Z,9.40
2023-03-13T05:08:39.849Z,9.40
2023-03-13T05:09:39.850Z,7.30
2023-03-13T05:10:39.837Z,7.90
2023-03-13T05:11:39.832Z,9.20
2023-03-13T05:12:39.818Z,8.80
2023-03-13T05:13:39.803Z,9.00
2023-03-13T05:14:39.841Z,12.00
2023-03-13T05:15:39.788Z,10.40
2023-03-13T05:16:39.781Z,11.20
2023-03-13T05:17:39.784Z,8.90
2023-03-13T05:18:39.773Z,8.60
2023-03-13T05:19:39.734Z,8.80
2023-03-13T05:20:39.731Z,9.60
2023-03-13T05:21:39.732Z,6.70
2023-03-13T05:22:39.714Z,9.70
2023-03-13T05:23:39.691Z,9.40
2023-03-13T05:24:41.848Z,6.50
2023-03-13T05:25:40.689Z,8.60
2023-03-13T05:26:39.679Z,6.50
2023-03-13T05:27:39.660Z,8.70
2023-03-13T05:28:39.642Z,7.70
2023-03-13T05:29:39.639Z,4.80
2023-03-13T05:30:39.766Z,8.70
2023-03-13T05:31:39.626Z,4.30
2023-03-13T05:32:39.643Z,7.90
2023-03-13T05:33:39.612Z,4.70
2023-03-13T05:34:39.597Z,6.80
2023-03-13T05:35:39.623Z,6.60
2023-03-13T05:36:39.594Z,7.30
2023-03-13T05:37:41.364Z,5.20
2023-03-13T05:38:40.554Z,6.80
2023-03-13T05:39:39.543Z,5.40
2023-03-13T05:40:39.532Z,6.30
2023-03-13T05:41:39.515Z,6.60
2023-03-13T05:42:39.517Z,7.10
2023-03-13T05:43:39.488Z,6.30
2023-03-13T05:44:39.495Z,6.90
2023-03-13T05:45:39.469Z,7.00
2023-03-13T05:46:39.521Z,7.90
2023-03-13T05:47:39.516Z,7.70
2023-03-13T05:48:39.443Z,4.90
2023-03-13T05:49:39.434Z,5.10
2023-03-13T05:50:39.435Z,7.10
2023-03-13T05:51:39.437Z,4.80
2023-03-13T05:52:39.418Z,4.20
2023-03-13T05:53:39.405Z,5.10
2023-03-13T05:54:39.397Z,5.70
2023-03-13T05:55:39.377Z,3.40
2023-03-13T05:56:39.355Z,5.80
2023-03-13T05:57:39.370Z,6.30
2023-03-13T05:58:39.338Z,6.60
2023-03-13T05:59:39.325Z,4.30
2023-03-13T06:00:39.325Z,6.90
2023-03-13T06:01:39.312Z,5.10
2023-03-13T06:02:39.315Z,4.80
2023-03-13T06:03:39.433Z,4.90
2023-03-13T06:04:39.461Z,3.30
2023-03-13T06:05:39.269Z,5.40
2023-03-13T06:06:39.256Z,7.30
2023-03-13T06:07:39.272Z,4.80
2023-03-13T06:08:39.236Z,4.80
2023-03-13T06:09:39.223Z,5.40
2023-03-13T06:10:39.208Z,6.20
2023-03-13T06:11:39.213Z,6.30
2023-03-13T06:12:39.231Z,4.10
2023-03-13T06:13:39.173Z,4.50
2023-03-13T06:14:39.184Z,4.80
2023-03-13T06:15:39.168Z,5.10
2023-03-13T06:16:39.151Z,6.50
2023-03-13T06:17:39.156Z,4.80
2023-03-13T06:18:39.124Z,5.40
2023-03-13T06:19:39.136Z,5.00
2023-03-13T06:20:40.694Z,4.50
2023-03-13T06:21:39.106Z,4.90
2023-03-13T06:22:39.102Z,5.50
2023-03-13T06:23:39.098Z,6.30
2023-03-13T06:24:39.086Z,4.70
2023-03-13T06:25:39.076Z,6.10
2023-03-13T06:26:39.079Z,5.20
2023-03-13T06:27:39.043Z,7.50
2023-03-13T06:28:39.021Z,3.50
2023-03-13T06:29:39.013Z,4.40
2023-03-13T06:30:39.017Z,4.50
2023-03-13T06:31:39.177Z,5.70
2023-03-13T06:32:39.151Z,4.80
2023-03-13T06:33:38.971Z,4.70
2023-03-13T06:34:38.981Z,5.20
2023-03-13T06:35:54.833Z,4.50
2023-03-13T06:36:41.064Z,3.30
2023-03-13T06:37:38.958Z,3.80
2023-03-13T06:38:38.922Z,6.40
2023-03-13T06:39:38.921Z,6.30
2023-03-13T06:40:38.904Z,4.30
2023-03-13T06:41:38.889Z,3.70
2023-03-13T06:42:38.897Z,3.10
2023-03-13T06:43:38.870Z,4.30
2023-03-13T06:44:39.001Z,4.90
2023-03-13T06:45:53.727Z,5.40
2023-03-13T06:46:38.888Z,4.30
2023-03-13T06:47:41.718Z,4.00
2023-03-13T06:48:38.822Z,3.80
2023-03-13T06:49:38.801Z,3.20
2023-03-13T06:50:38.813Z,3.40
2023-03-13T06:51:38.786Z,4.80
2023-03-13T06:52:43.946Z,3.00
2023-03-13T06:53:40.784Z,4.00
2023-03-13T06:54:38.763Z,3.50
2023-03-13T06:55:38.746Z,3.90
2023-03-13T06:56:38.731Z,2.40
2023-03-13T06:57:38.739Z,3.30
2023-03-13T06:58:38.715Z,2.90
2023-03-13T06:59:38.707Z,4.50
2023-03-13T07:00:38.753Z,2.90
2023-03-13T07:01:38.687Z,4.10
2023-03-13T07:02:38.677Z,2.60
2023-03-13T07:03:38.723Z,4.50
2023-03-13T07:04:38.659Z,3.70
2023-03-13T07:05:38.639Z,3.30
2023-03-13T07:06:38.629Z,2.40
2023-03-13T07:07:38.640Z,3.00
2023-03-13T07:08:38.619Z,4.00
2023-03-13T07:09:38.595Z,3.50
2023-03-13T07:10:38.589Z,2.20
2023-03-13T07:11:38.587Z,2.40
2023-03-13T07:12:38.572Z,3.10
2023-03-13T07:13:38.570Z,2.10
2023-03-13T07:14:38.548Z,3.70
2023-03-13T07:15:38.552Z,3.30
2023-03-13T07:16:38.566Z,3.20
2023-03-13T07:17:38.616Z,3.80
2023-03-13T07:18:38.511Z,2.10
2023-03-13T07:19:38.509Z,2.20
2023-03-13T07:20:38.563Z,3.30
2023-03-13T07:21:38.469Z,2.20
2023-03-13T07:22:38.482Z,1.20
2023-03-13T07:23:38.462Z,1.60
2023-03-13T07:24:38.479Z,1.90
2023-03-13T07:25:38.439Z,2.40
2023-03-13T07:26:38.507Z,1.60
2023-03-13T07:27:38.440Z,1.50
2023-03-13T07:28:38.410Z,2.70
2023-03-13T07:29:38.404Z,1.80
2023-03-13T07:30:38.377Z,2.80
2023-03-13T07:31:38.434Z,2.20
2023-03-13T07:32:38.465Z,1.30
2023-03-13T07:33:38.355Z,2.30
2023-03-13T07:34:38.342Z,2.10
2023-03-13T07:35:40.180Z,2.90
2023-03-13T07:36:39.418Z,1.90
2023-03-13T07:37:38.302Z,2.80
2023-03-13T07:38:38.310Z,2.40
2023-03-13T07:39:38.279Z,3.40
2023-03-13T07:40:38.268Z,3.60
2023-03-13T07:41:39.053Z,2.00
2023-03-13T07:42:39.261Z,2.20
2023-03-13T07:43:38.249Z,2.10
2023-03-13T07:44:38.247Z,2.00
2023-03-13T07:45:38.274Z,1.60
2023-03-13T07:46:38.214Z,1.40
2023-03-13T07:47:38.195Z,1.70
2023-03-13T07:48:39.198Z,2.90
2023-03-13T07:49:38.187Z,2.00
2023-03-13T07:50:38.200Z,3.10
2023-03-13T07:51:43.990Z,2.00
2023-03-13T07:52:40.179Z,2.10
2023-03-13T07:53:38.208Z,3.10
2023-03-13T07:54:38.214Z,4.60
2023-03-13T07:55:38.159Z,2.30
2023-03-13T07:56:38.108Z,2.30
2023-03-13T07:57:38.104Z,2.20
2023-03-13T07:58:38.159Z,3.40
2023-03-13T07:59:38.086Z,2.30
2023-03-13T08:00:38.069Z,2.30
2023-03-13T08:01:38.060Z,2.30
2023-03-13T08:02:38.103Z,2.30
2023-03-13T08:03:38.167Z,3.30
2023-03-13T08:04:38.026Z,2.20
2023-03-13T08:05:38.046Z,3.40
2023-03-13T08:06:38.022Z,3.50
2023-03-13T08:07:38.011Z,4.10
2023-03-13T08:08:37.998Z,2.60
2023-03-13T08:09:37.974Z,2.20
2023-03-13T08:10:37.986Z,2.40
2023-03-13T08:11:37.973Z,2.80
2023-03-13T08:12:37.954Z,5.40
2023-03-13T08:13:38.950Z,2.90
2023-03-13T08:14:37.991Z,2.30
2023-03-13T08:15:37.922Z,2.30
2023-03-13T08:16:37.940Z,2.30
2023-03-13T08:17:37.885Z,2.60
2023-03-13T08:18:37.888Z,2.10
2023-03-13T08:19:37.874Z,2.60
2023-03-13T08:20:37.862Z,2.20
2023-03-13T08:21:37.852Z,3.10
2023-03-13T08:22:37.831Z,5.40
2023-03-13T08:23:37.836Z,2.30
2023-03-13T08:24:37.804Z,5.10
2023-03-13T08:25:37.802Z,2.80
2023-03-13T08:26:37.791Z,3.50
2023-03-13T08:27:37.778Z,5.90
2023-03-13T08:28:37.803Z,3.30
2023-03-13T08:29:37.756Z,2.10
2023-03-13T08:30:37.795Z,3.00
2023-03-13T08:31:37.750Z,2.40
2023-03-13T08:32:37.778Z,1.90
2023-03-13T08:33:37.736Z,2.80
2023-03-13T08:34:37.709Z,2.20
2023-03-13T08:35:37.730Z,4.60
2023-03-13T08:36:37.690Z,3.10
2023-03-13T08:37:37.680Z,2.70
2023-03-13T08:38:37.679Z,2.20
2023-03-13T08:39:37.658Z,2.30
2023-03-13T08:40:37.656Z,1.90
2023-03-13T08:41:37.644Z,2.50
2023-03-13T08:42:37.630Z,3.50
2023-03-13T08:43:37.630Z,4.30
2023-03-13T08:44:37.615Z,2.80
2023-03-13T08:45:37.609Z,2.70
2023-03-13T08:46:37.680Z,2.30
2023-03-13T08:47:37.564Z,2.60
2023-03-13T08:48:37.572Z,3.90
2023-03-13T08:49:38.589Z,3.10
2023-03-13T08:50:37.548Z,2.30
2023-03-13T08:51:37.535Z,3.10
2023-03-13T08:52:37.534Z,2.30
2023-03-13T08:53:37.527Z,1.80
2023-03-13T08:54:37.523Z,2.50
2023-03-13T08:55:37.488Z,2.80
2023-03-13T08:56:37.482Z,2.40
2023-03-13T08:57:37.481Z,2.50
2023-03-13T08:58:37.491Z,2.10
2023-03-13T08:59:37.454Z,2.20
2023-03-13T09:00:37.453Z,2.80
2023-03-13T09:01:37.433Z,2.10
2023-03-13T09:02:37.487Z,2.10
2023-03-13T09:03:37.479Z,2.70
2023-03-13T09:04:37.412Z,2.20
2023-03-13T09:05:53.152Z,2.70
2023-03-13T09:07:04.768Z,2.60
2023-03-13T09:07:37.452Z,2.40
2023-03-13T09:08:37.414Z,2.50
2023-03-13T09:09:37.430Z,3.00
2023-03-13T09:10:37.457Z,3.10
2023-03-13T09:11:37.383Z,2.10
2023-03-13T09:12:37.391Z,2.00
2023-03-13T09:13:37.383Z,2.40
2023-03-13T09:14:37.374Z,2.10
2023-03-13T09:15:37.403Z,2.90
2023-03-13T09:16:37.321Z,3.40
2023-03-13T09:17:37.299Z,1.90
2023-03-13T09:18:37.355Z,2.50
2023-03-13T09:19:38.182Z,2.60
2023-03-13T09:20:37.342Z,2.30
2023-03-13T09:21:37.301Z,4.60
2023-03-13T09:22:37.293Z,3.00
2023-03-13T09:23:37.304Z,3.30
2023-03-13T09:24:37.254Z,3.70
2023-03-13T09:25:37.252Z,2.80
2023-03-13T09:26:37.242Z,2.70
2023-03-13T09:27:37.220Z,2.70
2023-03-13T09:28:37.254Z,2.70
2023-03-13T09:29:37.202Z,2.20
2023-03-13T09:30:37.229Z,2.60
2023-03-13T09:31:37.282Z,3.30
2023-03-13T09:32:37.269Z,1.90
2023-03-13T09:33:37.238Z,2.30
2023-03-13T09:34:37.246Z,3.40
2023-03-13T09:35:37.246Z,3.90
2023-03-13T09:36:37.155Z,2.40
2023-03-13T09:37:37.141Z,3.20
2023-03-13T09:38:37.154Z,2.90
2023-03-13T09:39:37.142Z,2.70
2023-03-13T09:40:37.114Z,2.60
2023-03-13T09:41:37.142Z,2.40
2023-03-13T09:42:37.081Z,3.90
2023-03-13T09:43:37.087Z,7.30
2023-03-13T09:44:37.079Z,3.30
2023-03-13T09:45:37.103Z,3.30
2023-03-13T09:46:37.062Z,3.40
2023-03-13T09:47:37.039Z,3.40
2023-03-13T09:48:37.077Z,2.30
2023-03-13T09:49:37.048Z,2.40
2023-03-13T09:50:37.031Z,3.80
2023-03-13T09:51:37.014Z,2.50
2023-03-13T09:52:37.006Z,2.60
2023-03-13T09:53:37.017Z,1.70
2023-03-13T09:54:36.989Z,2.90
2023-03-13T09:55:36.980Z,2.50
2023-03-13T09:56:36.945Z,2.20
2023-03-13T09:57:36.964Z,2.50
2023-03-13T09:58:37.078Z,2.80
2023-03-13T09:59:36.974Z,3.00
2023-03-13T10:00:36.932Z,2.40
2023-03-13T10:01:36.963Z,1.70
2023-03-13T10:02:36.891Z,1.80
2023-03-13T10:03:36.897Z,2.30
2023-03-13T10:04:37.803Z,3.00
2023-03-13T10:05:36.831Z,2.20
2023-03-13T10:06:36.885Z,2.60
2023-03-13T10:07:36.814Z,3.20
2023-03-13T10:08:36.802Z,1.90
2023-03-13T10:09:36.875Z,2.10
2023-03-13T10:10:36.804Z,2.20
2023-03-13T10:11:36.792Z,1.80
2023-03-13T10:12:36.789Z,1.60
2023-03-13T10:13:36.818Z,2.00
2023-03-13T10:14:36.804Z,1.60
2023-03-13T10:15:36.761Z,2.30
2023-03-13T10:16:36.787Z,2.40
2023-03-13T10:17:37.742Z,3.00
2023-03-13T10:18:36.729Z,2.70
2023-03-13T10:19:36.767Z,2.80
2023-03-13T10:20:36.757Z,2.40
2023-03-13T10:21:36.680Z,3.00
2023-03-13T10:22:36.716Z,3.50
2023-03-13T10:23:36.728Z,2.60
2023-03-13T10:24:36.693Z,3.30
2023-03-13T10:25:36.833Z,2.00
2023-03-13T10:26:36.676Z,2.50
2023-03-13T10:27:36.606Z,2.60
2023-03-13T10:28:36.698Z,2.00
2023-03-13T10:29:36.610Z,3.60
2023-03-13T10:30:36.899Z,3.30
2023-03-13T10:31:37.862Z,2.00
2023-03-13T10:32:36.636Z,2.60
2023-03-13T10:33:38.486Z,2.00
2023-03-13T10:34:36.927Z,4.00
2023-03-13T10:36:14.522Z,1.70
2023-03-13T10:36:37.551Z,2.30
2023-03-13T10:38:16.373Z,4.90
2023-03-13T10:38:41.245Z,2.90
2023-03-13T10:39:49.841Z,2.60
2023-03-13T10:40:37.617Z,1.80
2023-03-13T10:45:26.009Z,3.70
2023-03-13T10:48:12.348Z,3.60
2023-03-13T10:48:41.343Z,2.80
2023-03-13T10:50:56.257Z,2.60
2023-03-13T10:51:39.698Z,3.40
2023-03-13T10:52:03.854Z,3.40
2023-03-13T10:56:00.247Z,1.70
2023-03-13T10:57:54.644Z,3.00
2023-03-13T10:58:46.342Z,1.80
2023-03-13T10:59:38.696Z,2.70
2023-03-13T11:02:07.768Z,3.10
2023-03-13T11:03:14.596Z,3.30
2023-03-13T11:06:40.916Z,3.00
2023-03-13T11:08:00.759Z,3.10
2023-03-13T11:09:03.561Z,3.00
2023-03-13T11:09:28.720Z,2.70
2023-03-13T11:10:24.114Z,4.60
2023-03-13T11:11:24.138Z,2.70
2023-03-13T11:12:24.130Z,3.00
2023-03-13T11:13:35.506Z,3.40
2023-03-13T11:14:39.317Z,3.30
2023-03-13T11:15:25.673Z,3.90
2023-03-13T11:16:32.269Z,3.40
2023-03-13T11:17:35.029Z,2.40
2023-03-13T11:18:30.158Z,2.60
2023-03-13T11:19:27.091Z,3.10
2023-03-13T11:20:24.123Z,2.80
2023-03-13T11:21:25.632Z,1.60
2023-03-13T11:22:25.140Z,2.80
2023-03-13T11:23:29.368Z,3.50
2023-03-13T11:25:10.937Z,3.00
2023-03-13T11:27:02.022Z,2.50
2023-03-13T11:27:04.476Z,2.70
2023-03-13T11:27:58.975Z,3.80
2023-03-13T11:29:06.655Z,3.10
2023-03-13T11:29:56.808Z,2.70
2023-03-13T11:30:56.723Z,3.40
2023-03-13T11:31:57.587Z,2.30
2023-03-13T11:32:59.525Z,2.80
2023-03-13T11:33:57.624Z,2.10
2023-03-13T11:34:58.319Z,2.10
2023-03-13T11:35:57.593Z,2.40
2023-03-13T11:36:57.275Z,3.30
2023-03-13T11:37:56.382Z,2.00
2023-03-13T11:38:57.144Z,2.70
2023-03-13T11:39:56.374Z,1.90
2023-03-13T11:40:56.369Z,1.90
2023-03-13T11:41:56.403Z,2.60
2023-03-13T11:42:56.372Z,2.20
2023-03-13T11:43:58.640Z,3.70
2023-03-13T11:44:56.358Z,2.70
2023-03-13T11:45:56.555Z,4.30
2023-03-13T11:46:56.296Z,2.40
2023-03-13T11:47:56.262Z,3.00
2023-03-13T11:48:56.381Z,3.60
2023-03-13T11:49:56.346Z,2.00
2023-03-13T11:50:57.168Z,2.20
2023-03-13T11:51:56.288Z,3.10
2023-03-13T11:52:56.254Z,2.40
2023-03-13T11:53:56.348Z,2.90
2023-03-13T11:54:56.982Z,2.10
2023-03-13T11:55:56.242Z,2.40
2023-03-13T11:56:56.320Z,3.30
2023-03-13T11:57:56.229Z,3.60
2023-03-13T11:58:56.217Z,2.70
2023-03-13T11:59:56.345Z,3.90
2023-03-13T12:00:56.358Z,1.90
2023-03-13T12:01:56.215Z,1.70
2023-03-13T12:02:56.248Z,3.30
2023-03-13T12:03:56.176Z,2.00
2023-03-13T12:04:56.090Z,2.10
2023-03-13T12:05:56.123Z,4.00
2023-03-13T12:06:56.044Z,3.50
2023-03-13T12:07:56.074Z,2.20
2023-03-13T12:08:56.015Z,1.80
2023-03-13T12:09:56.085Z,3.30
2023-03-13T12:10:55.993Z,1.70
2023-03-13T12:11:55.993Z,2.30
2023-03-13T12:12:55.980Z,4.80
2023-03-13T12:13:55.974Z,1.80
2023-03-13T12:14:56.002Z,3.60
2023-03-13T12:15:55.998Z,2.50
2023-03-13T12:16:56.020Z,1.80
2023-03-13T12:17:56.018Z,1.40
2023-03-13T12:18:55.911Z,4.90
2023-03-13T12:19:55.941Z,2.40
2023-03-13T12:20:55.937Z,2.30
2023-03-13T12:21:55.972Z,1.80
2023-03-13T12:22:55.877Z,2.60
2023-03-13T12:23:55.949Z,2.10
2023-03-13T12:24:55.908Z,3.50
2023-03-13T12:25:55.870Z,3.00
2023-03-13T12:26:55.962Z,1.90
2023-03-13T12:27:56.017Z,2.80
2023-03-13T12:28:55.809Z,2.50
2023-03-13T12:29:56.899Z,2.10
2023-03-13T12:30:55.926Z,2.80
2023-03-13T12:31:56.373Z,2.10
2023-03-13T12:32:55.858Z,3.10
2023-03-13T12:33:55.772Z,1.90
2023-03-13T12:34:55.771Z,2.80
2023-03-13T12:35:55.843Z,1.60
2023-03-13T12:36:55.793Z,2.10
2023-03-13T12:37:55.746Z,2.50
2023-03-13T12:38:55.725Z,2.60
2023-03-13T12:39:56.857Z,1.90
2023-03-13T12:40:55.655Z,2.20
2023-03-13T12:41:55.713Z,1.90
2023-03-13T12:42:55.683Z,3.60
2023-03-13T12:44:07.869Z,1.80
2023-03-13T12:44:57.674Z,2.50
2023-03-13T12:45:55.770Z,2.00
2023-03-13T12:46:55.682Z,1.50
2023-03-13T12:47:55.620Z,3.40
2023-03-13T12:48:55.600Z,2.70
2023-03-13T12:49:55.671Z,2.10
2023-03-13T12:50:55.581Z,1.50
2023-03-13T12:51:55.605Z,2.30
2023-03-13T12:52:55.586Z,3.00
2023-03-13T12:53:55.638Z,2.50
2023-03-13T12:54:55.542Z,3.60
2023-03-13T12:55:55.542Z,1.70
2023-03-13T12:56:55.509Z,3.50
2023-03-13T12:57:55.586Z,2.00
2023-03-13T12:58:55.537Z,2.10
2023-03-13T12:59:55.508Z,2.30
2023-03-13T13:00:56.495Z,2.20
2023-03-13T13:01:55.578Z,2.40
2023-03-13T13:02:55.490Z,2.40
2023-03-13T13:03:55.510Z,2.50
2023-03-13T13:04:55.542Z,2.20
2023-03-13T13:05:55.496Z,2.50
2023-03-13T13:06:55.453Z,1.70
2023-03-13T13:07:55.419Z,2.70
2023-03-13T13:08:55.396Z,3.00
2023-03-13T13:09:55.393Z,2.10
2023-03-13T13:10:55.406Z,3.30
2023-03-13T13:11:55.410Z,5.10
2023-03-13T13:12:55.407Z,1.50
2023-03-13T13:13:55.356Z,4.80
2023-03-13T13:14:55.341Z,2.80
2023-03-13T13:15:55.342Z,2.10
2023-03-13T13:16:55.323Z,2.00
2023-03-13T13:17:55.329Z,1.80
2023-03-13T13:18:55.330Z,2.20
2023-03-13T13:19:55.309Z,3.60
2023-03-13T13:20:55.288Z,2.80
2023-03-13T13:21:55.278Z,2.00
2023-03-13T13:22:55.277Z,2.20